sensor_id;sensor_type;location;lat;lon;timestamp;P1;durP1;ratioP1;P2;durP2;ratioP2
13327;SDS011;6733;51.044;3.746;2022-10-22T00:01:46;6.40;;;3.30;;
13327;SDS011;6733;51.044;3.746;2022-10-22T00:04:12;10.73;;;3.00;;
13327;SDS011;6733;51.044;3.746;2022-10-22T00:06:38;8.60;;;3.20;;
13327;SDS011;6733;51.044;3.746;2022-10-22T00:09:07;8.10;;;3.03;;
13327;SDS011;6733;51.044;3.746;2022-10-22T00:11:33;7.27;;;3.37;;
13327;SDS011;6733;51.044;3.746;2022-10-22T00:13:59;9.30;;;3.40;;
13327;SDS011;6733;51.044;3.746;2022-10-22T00:16:25;6.93;;;3.37;;
13327;SDS011;6733;51.044;3.746;2022-10-22T00:18:51;11.50;;;4.00;;
13327;SDS011;6733;51.044;3.746;2022-10-22T00:21:18;7.13;;;2.83;;
13327;SDS011;6733;51.044;3.746;2022-10-22T00:23:44;8.07;;;3.10;;
13327;SDS011;6733;51.044;3.746;2022-10-22T00:26:10;10.30;;;3.27;;
13327;SDS011;6733;51.044;3.746;2022-10-22T00:28:37;11.57;;;3.03;;
13327;SDS011;6733;51.044;3.746;2022-10-22T00:31:03;7.83;;;3.30;;
13327;SDS011;6733;51.044;3.746;2022-10-22T00:33:30;9.97;;;3.07;;
13327;SDS011;6733;51.044;3.746;2022-10-22T00:35:56;8.20;;;3.37;;
13327;SDS011;6733;51.044;3.746;2022-10-22T00:38:23;6.77;;;2.67;;
13327;SDS011;6733;51.044;3.746;2022-10-22T00:40:49;8.10;;;2.70;;
13327;SDS011;6733;51.044;3.746;2022-10-22T00:43:16;9.60;;;3.47;;
13327;SDS011;6733;51.044;3.746;2022-10-22T00:45:43;10.47;;;3.60;;
13327;SDS011;6733;51.044;3.746;2022-10-22T00:53:10;8.53;;;3.00;;
13327;SDS011;6733;51.044;3.746;2022-10-22T00:55:39;8.07;;;3.40;;
13327;SDS011;6733;51.044;3.746;2022-10-22T00:58:06;12.50;;;3.20;;
13327;SDS011;6733;51.044;3.746;2022-10-22T01:00:33;7.33;;;2.93;;
13327;SDS011;6733;51.044;3.746;2022-10-22T01:02:59;8.43;;;3.00;;
13327;SDS011;6733;51.044;3.746;2022-10-22T01:05:30;8.83;;;3.60;;
13327;SDS011;6733;51.044;3.746;2022-10-22T01:08:03;10.10;;;3.40;;
13327;SDS011;6733;51.044;3.746;2022-10-22T01:15:42;11.10;;;3.20;;
13327;SDS011;6733;51.044;3.746;2022-10-22T01:23:52;6.43;;;3.27;;
13327;SDS011;6733;51.044;3.746;2022-10-22T01:29:18;8.90;;;2.70;;
13327;SDS011;6733;51.044;3.746;2022-10-22T01:31:52;9.07;;;3.13;;
13327;SDS011;6733;51.044;3.746;2022-10-22T01:34:23;7.90;;;2.70;;
13327;SDS011;6733;51.044;3.746;2022-10-22T01:36:51;8.27;;;2.90;;
13327;SDS011;6733;51.044;3.746;2022-10-22T01:39:19;10.77;;;3.50;;
13327;SDS011;6733;51.044;3.746;2022-10-22T01:41:45;9.63;;;3.30;;
13327;SDS011;6733;51.044;3.746;2022-10-22T01:44:25;9.13;;;3.20;;
13327;SDS011;6733;51.044;3.746;2022-10-22T01:52:43;9.33;;;3.13;;
13327;SDS011;6733;51.044;3.746;2022-10-22T01:55:28;7.43;;;3.07;;
13327;SDS011;6733;51.044;3.746;2022-10-22T01:59:10;7.87;;;3.07;;
13327;SDS011;6733;51.044;3.746;2022-10-22T02:01:05;8.20;;;2.73;;
13327;SDS011;6733;51.044;3.746;2022-10-22T02:04:00;7.77;;;2.93;;
13327;SDS011;6733;51.044;3.746;2022-10-22T02:06:35;8.47;;;3.30;;
13327;SDS011;6733;51.044;3.746;2022-10-22T02:09:06;9.80;;;3.90;;
13327;SDS011;6733;51.044;3.746;2022-10-22T02:11:35;10.80;;;3.30;;
13327;SDS011;6733;51.044;3.746;2022-10-22T02:14:02;9.67;;;3.23;;
13327;SDS011;6733;51.044;3.746;2022-10-22T02:16:35;10.23;;;3.20;;
13327;SDS011;6733;51.044;3.746;2022-10-22T02:19:19;8.87;;;2.93;;
13327;SDS011;6733;51.044;3.746;2022-10-22T02:21:51;10.33;;;3.20;;
13327;SDS011;6733;51.044;3.746;2022-10-22T02:24:18;8.73;;;3.87;;
13327;SDS011;6733;51.044;3.746;2022-10-22T02:26:51;11.13;;;3.00;;
13327;SDS011;6733;51.044;3.746;2022-10-22T02:29:38;8.50;;;2.80;;
13327;SDS011;6733;51.044;3.746;2022-10-22T02:42:36;8.87;;;3.30;;
13327;SDS011;6733;51.044;3.746;2022-10-22T02:45:25;6.23;;;2.97;;
13327;SDS011;6733;51.044;3.746;2022-10-22T02:47:52;12.77;;;3.30;;
13327;SDS011;6733;51.044;3.746;2022-10-22T02:50:18;12.47;;;3.50;;
13327;SDS011;6733;51.044;3.746;2022-10-22T02:52:44;5.30;;;3.10;;
13327;SDS011;6733;51.044;3.746;2022-10-22T02:55:10;8.40;;;2.80;;
13327;SDS011;6733;51.044;3.746;2022-10-22T02:57:36;9.50;;;3.30;;
13327;SDS011;6733;51.044;3.746;2022-10-22T03:00:03;8.40;;;3.43;;
13327;SDS011;6733;51.044;3.746;2022-10-22T03:02:38;10.27;;;3.00;;
13327;SDS011;6733;51.044;3.746;2022-10-22T03:05:04;9.03;;;3.10;;
13327;SDS011;6733;51.044;3.746;2022-10-22T03:07:31;9.30;;;3.17;;
13327;SDS011;6733;51.044;3.746;2022-10-22T03:09:57;7.97;;;3.63;;
13327;SDS011;6733;51.044;3.746;2022-10-22T03:12:23;10.70;;;3.23;;
13327;SDS011;6733;51.044;3.746;2022-10-22T03:14:49;7.73;;;2.90;;
13327;SDS011;6733;51.044;3.746;2022-10-22T03:17:15;9.13;;;3.20;;
13327;SDS011;6733;51.044;3.746;2022-10-22T03:19:43;8.33;;;3.07;;
13327;SDS011;6733;51.044;3.746;2022-10-22T03:22:20;9.10;;;3.03;;
13327;SDS011;6733;51.044;3.746;2022-10-22T03:24:50;7.93;;;3.10;;
13327;SDS011;6733;51.044;3.746;2022-10-22T03:27:20;11.43;;;3.33;;
13327;SDS011;6733;51.044;3.746;2022-10-22T03:29:47;9.00;;;3.07;;
13327;SDS011;6733;51.044;3.746;2022-10-22T03:32:16;11.17;;;3.40;;
13327;SDS011;6733;51.044;3.746;2022-10-22T03:34:42;11.77;;;2.93;;
13327;SDS011;6733;51.044;3.746;2022-10-22T03:37:08;6.97;;;3.23;;
13327;SDS011;6733;51.044;3.746;2022-10-22T03:39:35;12.03;;;3.27;;
13327;SDS011;6733;51.044;3.746;2022-10-22T03:42:02;7.00;;;3.10;;
13327;SDS011;6733;51.044;3.746;2022-10-22T03:44:29;9.87;;;3.10;;
13327;SDS011;6733;51.044;3.746;2022-10-22T03:46:57;9.33;;;3.10;;
13327;SDS011;6733;51.044;3.746;2022-10-22T03:49:23;10.43;;;3.07;;
13327;SDS011;6733;51.044;3.746;2022-10-22T03:51:49;12.03;;;3.30;;
13327;SDS011;6733;51.044;3.746;2022-10-22T03:54:15;11.53;;;3.30;;
13327;SDS011;6733;51.044;3.746;2022-10-22T03:56:41;9.57;;;3.23;;
13327;SDS011;6733;51.044;3.746;2022-10-22T03:59:08;11.60;;;3.13;;
13327;SDS011;6733;51.044;3.746;2022-10-22T04:01:34;12.50;;;3.20;;
13327;SDS011;6733;51.044;3.746;2022-10-22T04:04:00;9.43;;;3.33;;
13327;SDS011;6733;51.044;3.746;2022-10-22T04:06:27;7.00;;;3.30;;
13327;SDS011;6733;51.044;3.746;2022-10-22T04:08:54;10.23;;;3.27;;
13327;SDS011;6733;51.044;3.746;2022-10-22T04:11:21;17.13;;;3.40;;
13327;SDS011;6733;51.044;3.746;2022-10-22T04:13:47;10.20;;;3.00;;
13327;SDS011;6733;51.044;3.746;2022-10-22T04:16:18;6.93;;;2.60;;
13327;SDS011;6733;51.044;3.746;2022-10-22T04:18:46;8.03;;;2.83;;
13327;SDS011;6733;51.044;3.746;2022-10-22T04:21:13;9.43;;;2.90;;
13327;SDS011;6733;51.044;3.746;2022-10-22T04:23:49;8.13;;;3.07;;
13327;SDS011;6733;51.044;3.746;2022-10-22T04:26:16;5.97;;;2.67;;
13327;SDS011;6733;51.044;3.746;2022-10-22T04:28:44;9.73;;;2.93;;
13327;SDS011;6733;51.044;3.746;2022-10-22T04:31:12;7.87;;;2.87;;
13327;SDS011;6733;51.044;3.746;2022-10-22T04:33:41;8.00;;;2.93;;
13327;SDS011;6733;51.044;3.746;2022-10-22T04:36:08;10.23;;;3.20;;
13327;SDS011;6733;51.044;3.746;2022-10-22T08:02:36;6.80;;;2.80;;
13327;SDS011;6733;51.044;3.746;2022-10-22T08:05:03;9.70;;;2.60;;
13327;SDS011;6733;51.044;3.746;2022-10-22T08:07:30;7.83;;;3.10;;
13327;SDS011;6733;51.044;3.746;2022-10-22T08:09:56;8.73;;;2.80;;
13327;SDS011;6733;51.044;3.746;2022-10-22T08:12:22;9.80;;;2.97;;
13327;SDS011;6733;51.044;3.746;2022-10-22T08:14:48;7.73;;;2.97;;
13327;SDS011;6733;51.044;3.746;2022-10-22T08:17:14;9.67;;;2.83;;
13327;SDS011;6733;51.044;3.746;2022-10-22T08:19:41;10.00;;;3.33;;
13327;SDS011;6733;51.044;3.746;2022-10-22T08:22:07;7.17;;;2.63;;
13327;SDS011;6733;51.044;3.746;2022-10-22T08:24:33;9.07;;;2.83;;
13327;SDS011;6733;51.044;3.746;2022-10-22T08:26:59;9.17;;;3.40;;
13327;SDS011;6733;51.044;3.746;2022-10-22T08:29:25;12.47;;;3.50;;
13327;SDS011;6733;51.044;3.746;2022-10-22T08:31:52;12.43;;;3.17;;
13327;SDS011;6733;51.044;3.746;2022-10-22T08:34:18;9.10;;;3.33;;
13327;SDS011;6733;51.044;3.746;2022-10-22T08:36:45;9.50;;;3.20;;
13327;SDS011;6733;51.044;3.746;2022-10-22T08:39:11;9.40;;;3.00;;
13327;SDS011;6733;51.044;3.746;2022-10-22T08:49:42;7.03;;;2.87;;
13327;SDS011;6733;51.044;3.746;2022-10-22T08:52:11;7.47;;;2.60;;
13327;SDS011;6733;51.044;3.746;2022-10-22T09:00:08;12.60;;;2.97;;
13327;SDS011;6733;51.044;3.746;2022-10-22T09:08:10;6.37;;;2.63;;
13327;SDS011;6733;51.044;3.746;2022-10-22T09:10:39;12.33;;;3.83;;
13327;SDS011;6733;51.044;3.746;2022-10-22T09:13:31;9.80;;;3.77;;
13327;SDS011;6733;51.044;3.746;2022-10-22T09:15:59;8.67;;;3.40;;
13327;SDS011;6733;51.044;3.746;2022-10-22T09:18:38;7.80;;;3.13;;
13327;SDS011;6733;51.044;3.746;2022-10-22T09:26:32;11.03;;;3.60;;
13327;SDS011;6733;51.044;3.746;2022-10-22T09:29:04;9.70;;;3.57;;
13327;SDS011;6733;51.044;3.746;2022-10-22T09:31:32;7.13;;;3.13;;
13327;SDS011;6733;51.044;3.746;2022-10-22T09:34:00;9.73;;;3.07;;
13327;SDS011;6733;51.044;3.746;2022-10-22T09:36:32;7.80;;;2.83;;
13327;SDS011;6733;51.044;3.746;2022-10-22T09:39:00;7.43;;;2.60;;
13327;SDS011;6733;51.044;3.746;2022-10-22T09:41:27;10.60;;;3.33;;
13327;SDS011;6733;51.044;3.746;2022-10-22T09:43:55;12.07;;;3.90;;
13327;SDS011;6733;51.044;3.746;2022-10-22T09:46:24;11.30;;;3.47;;
13327;SDS011;6733;51.044;3.746;2022-10-22T09:54:14;8.53;;;3.07;;
13327;SDS011;6733;51.044;3.746;2022-10-22T09:56:41;12.13;;;3.37;;
13327;SDS011;6733;51.044;3.746;2022-10-22T09:59:14;8.00;;;2.63;;
13327;SDS011;6733;51.044;3.746;2022-10-22T10:01:42;11.57;;;3.47;;
13327;SDS011;6733;51.044;3.746;2022-10-22T10:04:11;7.83;;;2.90;;
13327;SDS011;6733;51.044;3.746;2022-10-22T10:06:39;7.93;;;2.70;;
13327;SDS011;6733;51.044;3.746;2022-10-22T10:09:17;5.20;;;2.97;;
13327;SDS011;6733;51.044;3.746;2022-10-22T10:20:43;10.10;;;2.97;;
13327;SDS011;6733;51.044;3.746;2022-10-22T10:23:09;11.67;;;3.53;;
13327;SDS011;6733;51.044;3.746;2022-10-22T10:26:01;6.70;;;3.20;;
13327;SDS011;6733;51.044;3.746;2022-10-22T10:31:40;9.57;;;3.43;;
13327;SDS011;6733;51.044;3.746;2022-10-22T10:37:37;8.97;;;3.10;;
13327;SDS011;6733;51.044;3.746;2022-10-22T10:40:18;7.13;;;2.77;;
13327;SDS011;6733;51.044;3.746;2022-10-22T10:43:03;7.60;;;2.93;;
13327;SDS011;6733;51.044;3.746;2022-10-22T10:48:35;7.70;;;2.97;;
13327;SDS011;6733;51.044;3.746;2022-10-22T10:57:20;12.97;;;3.87;;
13327;SDS011;6733;51.044;3.746;2022-10-22T11:00:10;8.23;;;3.13;;
13327;SDS011;6733;51.044;3.746;2022-10-22T11:05:54;12.90;;;3.87;;
13327;SDS011;6733;51.044;3.746;2022-10-22T11:08:30;9.00;;;2.83;;
13327;SDS011;6733;51.044;3.746;2022-10-22T11:13:42;9.40;;;2.97;;
13327;SDS011;6733;51.044;3.746;2022-10-22T11:21:48;10.47;;;2.93;;
13327;SDS011;6733;51.044;3.746;2022-10-22T11:24:29;9.33;;;2.77;;
13327;SDS011;6733;51.044;3.746;2022-10-22T11:30:13;7.93;;;3.33;;
13327;SDS011;6733;51.044;3.746;2022-10-22T11:32:41;11.97;;;3.40;;
13327;SDS011;6733;51.044;3.746;2022-10-22T11:35:15;7.70;;;3.00;;
13327;SDS011;6733;51.044;3.746;2022-10-22T11:37:46;8.53;;;3.60;;
13327;SDS011;6733;51.044;3.746;2022-10-22T11:40:16;9.13;;;3.73;;
13327;SDS011;6733;51.044;3.746;2022-10-22T11:42:56;11.43;;;3.40;;
13327;SDS011;6733;51.044;3.746;2022-10-22T11:50:54;7.47;;;2.63;;
13327;SDS011;6733;51.044;3.746;2022-10-22T11:53:33;5.47;;;2.83;;
13327;SDS011;6733;51.044;3.746;2022-10-22T11:56:03;8.20;;;2.90;;
13327;SDS011;6733;51.044;3.746;2022-10-22T11:58:48;10.93;;;3.17;;
13327;SDS011;6733;51.044;3.746;2022-10-22T12:04:39;7.63;;;2.67;;
13327;SDS011;6733;51.044;3.746;2022-10-22T12:06:59;9.83;;;3.33;;
13327;SDS011;6733;51.044;3.746;2022-10-22T12:09:26;9.87;;;2.80;;
13327;SDS011;6733;51.044;3.746;2022-10-22T12:12:13;6.77;;;2.57;;
13327;SDS011;6733;51.044;3.746;2022-10-22T12:14:50;6.50;;;2.30;;
13327;SDS011;6733;51.044;3.746;2022-10-22T12:17:19;9.10;;;2.80;;
13327;SDS011;6733;51.044;3.746;2022-10-22T12:19:49;4.70;;;2.27;;
13327;SDS011;6733;51.044;3.746;2022-10-22T12:22:20;8.33;;;2.50;;
13327;SDS011;6733;51.044;3.746;2022-10-22T12:24:51;8.53;;;2.67;;
13327;SDS011;6733;51.044;3.746;2022-10-22T12:29:47;5.90;;;2.27;;
13327;SDS011;6733;51.044;3.746;2022-10-22T12:32:35;6.23;;;2.70;;
13327;SDS011;6733;51.044;3.746;2022-10-22T12:35:05;4.83;;;2.00;;
13327;SDS011;6733;51.044;3.746;2022-10-22T12:37:34;6.77;;;2.27;;
13327;SDS011;6733;51.044;3.746;2022-10-22T12:42:46;5.83;;;2.30;;
13327;SDS011;6733;51.044;3.746;2022-10-22T12:45:17;5.53;;;2.80;;
13327;SDS011;6733;51.044;3.746;2022-10-22T12:47:45;6.57;;;2.57;;
13327;SDS011;6733;51.044;3.746;2022-10-22T12:50:20;6.30;;;2.70;;
13327;SDS011;6733;51.044;3.746;2022-10-22T12:52:54;6.80;;;2.63;;
13327;SDS011;6733;51.044;3.746;2022-10-22T12:55:21;5.43;;;2.37;;
13327;SDS011;6733;51.044;3.746;2022-10-22T12:57:51;4.30;;;2.10;;
13327;SDS011;6733;51.044;3.746;2022-10-22T13:00:29;5.77;;;2.00;;
13327;SDS011;6733;51.044;3.746;2022-10-22T13:03:00;6.90;;;2.13;;
13327;SDS011;6733;51.044;3.746;2022-10-22T13:05:32;7.40;;;2.20;;
13327;SDS011;6733;51.044;3.746;2022-10-22T13:08:10;9.07;;;2.23;;
13327;SDS011;6733;51.044;3.746;2022-10-22T13:10:48;7.73;;;2.70;;
13327;SDS011;6733;51.044;3.746;2022-10-22T13:13:32;7.20;;;2.30;;
13327;SDS011;6733;51.044;3.746;2022-10-22T13:18:42;6.60;;;2.47;;
13327;SDS011;6733;51.044;3.746;2022-10-22T13:21:20;5.60;;;2.17;;
13327;SDS011;6733;51.044;3.746;2022-10-22T13:24:00;7.07;;;2.70;;
13327;SDS011;6733;51.044;3.746;2022-10-22T13:26:32;7.00;;;2.67;;
13327;SDS011;6733;51.044;3.746;2022-10-22T13:29:00;5.90;;;2.10;;
13327;SDS011;6733;51.044;3.746;2022-10-22T13:31:34;4.37;;;2.03;;
13327;SDS011;6733;51.044;3.746;2022-10-22T13:34:03;4.83;;;2.00;;
13327;SDS011;6733;51.044;3.746;2022-10-22T13:36:34;17.90;;;3.17;;
13327;SDS011;6733;51.044;3.746;2022-10-22T13:39:03;4.73;;;2.07;;
13327;SDS011;6733;51.044;3.746;2022-10-22T13:41:36;8.47;;;2.30;;
13327;SDS011;6733;51.044;3.746;2022-10-22T13:44:03;5.20;;;2.10;;
13327;SDS011;6733;51.044;3.746;2022-10-22T13:46:29;7.47;;;2.47;;
13327;SDS011;6733;51.044;3.746;2022-10-22T13:48:56;7.70;;;2.87;;
13327;SDS011;6733;51.044;3.746;2022-10-22T13:51:27;7.60;;;2.53;;
13327;SDS011;6733;51.044;3.746;2022-10-22T13:53:57;5.50;;;2.10;;
13327;SDS011;6733;51.044;3.746;2022-10-22T13:56:23;5.40;;;2.40;;
13327;SDS011;6733;51.044;3.746;2022-10-22T13:58:50;5.10;;;2.27;;
13327;SDS011;6733;51.044;3.746;2022-10-22T14:01:23;6.30;;;2.53;;
13327;SDS011;6733;51.044;3.746;2022-10-22T14:03:53;5.07;;;2.27;;
13327;SDS011;6733;51.044;3.746;2022-10-22T14:06:22;6.33;;;2.50;;
13327;SDS011;6733;51.044;3.746;2022-10-22T14:08:53;6.73;;;2.47;;
13327;SDS011;6733;51.044;3.746;2022-10-22T14:11:23;6.80;;;2.80;;
13327;SDS011;6733;51.044;3.746;2022-10-22T14:13:52;3.23;;;1.97;;
13327;SDS011;6733;51.044;3.746;2022-10-22T14:16:19;5.03;;;1.93;;
13327;SDS011;6733;51.044;3.746;2022-10-22T14:18:50;6.97;;;2.63;;
13327;SDS011;6733;51.044;3.746;2022-10-22T14:21:17;8.77;;;2.80;;
13327;SDS011;6733;51.044;3.746;2022-10-22T14:23:44;6.20;;;2.47;;
13327;SDS011;6733;51.044;3.746;2022-10-22T14:26:20;4.00;;;2.17;;
13327;SDS011;6733;51.044;3.746;2022-10-22T14:28:49;5.07;;;2.33;;
13327;SDS011;6733;51.044;3.746;2022-10-22T14:31:15;6.03;;;2.53;;
13327;SDS011;6733;51.044;3.746;2022-10-22T14:33:41;4.00;;;2.10;;
13327;SDS011;6733;51.044;3.746;2022-10-22T14:36:10;4.73;;;1.77;;
13327;SDS011;6733;51.044;3.746;2022-10-22T14:38:38;9.00;;;2.10;;
13327;SDS011;6733;51.044;3.746;2022-10-22T14:41:08;4.53;;;1.97;;
13327;SDS011;6733;51.044;3.746;2022-10-22T14:43:42;4.77;;;1.80;;
13327;SDS011;6733;51.044;3.746;2022-10-22T14:46:09;5.53;;;2.10;;
13327;SDS011;6733;51.044;3.746;2022-10-22T14:48:36;7.27;;;2.60;;
13327;SDS011;6733;51.044;3.746;2022-10-22T14:51:03;6.47;;;2.10;;
13327;SDS011;6733;51.044;3.746;2022-10-22T14:53:29;5.70;;;2.33;;
13327;SDS011;6733;51.044;3.746;2022-10-22T14:55:55;6.43;;;2.30;;
13327;SDS011;6733;51.044;3.746;2022-10-22T14:58:27;5.80;;;2.03;;
13327;SDS011;6733;51.044;3.746;2022-10-22T15:00:53;5.40;;;2.53;;
13327;SDS011;6733;51.044;3.746;2022-10-22T15:03:19;4.37;;;1.90;;
13327;SDS011;6733;51.044;3.746;2022-10-22T15:05:45;5.47;;;2.20;;
13327;SDS011;6733;51.044;3.746;2022-10-22T15:08:12;11.17;;;3.27;;
13327;SDS011;6733;51.044;3.746;2022-10-22T15:10:39;5.57;;;2.10;;
13327;SDS011;6733;51.044;3.746;2022-10-22T15:13:06;4.47;;;2.10;;
13327;SDS011;6733;51.044;3.746;2022-10-22T15:15:33;8.63;;;2.87;;
13327;SDS011;6733;51.044;3.746;2022-10-22T15:17:59;6.37;;;2.10;;
13327;SDS011;6733;51.044;3.746;2022-10-22T15:20:25;7.97;;;2.50;;
13327;SDS011;6733;51.044;3.746;2022-10-22T15:22:51;5.63;;;2.00;;
13327;SDS011;6733;51.044;3.746;2022-10-22T15:25:17;7.60;;;2.57;;
13327;SDS011;6733;51.044;3.746;2022-10-22T15:27:44;8.83;;;2.27;;
13327;SDS011;6733;51.044;3.746;2022-10-22T15:30:10;6.63;;;2.20;;
13327;SDS011;6733;51.044;3.746;2022-10-22T15:32:38;6.77;;;2.43;;
13327;SDS011;6733;51.044;3.746;2022-10-22T15:35:04;10.03;;;2.70;;
13327;SDS011;6733;51.044;3.746;2022-10-22T15:37:32;6.57;;;2.30;;
13327;SDS011;6733;51.044;3.746;2022-10-22T15:39:58;7.23;;;2.37;;
13327;SDS011;6733;51.044;3.746;2022-10-22T15:42:25;10.87;;;3.27;;
13327;SDS011;6733;51.044;3.746;2022-10-22T15:44:57;8.70;;;2.43;;
13327;SDS011;6733;51.044;3.746;2022-10-22T15:47:23;6.60;;;2.60;;
13327;SDS011;6733;51.044;3.746;2022-10-22T15:49:53;8.57;;;2.83;;
13327;SDS011;6733;51.044;3.746;2022-10-22T15:56:05;7.60;;;2.53;;
13327;SDS011;6733;51.044;3.746;2022-10-22T15:58:33;8.87;;;2.67;;
13327;SDS011;6733;51.044;3.746;2022-10-22T16:01:02;5.50;;;2.80;;
13327;SDS011;6733;51.044;3.746;2022-10-22T16:03:30;5.77;;;2.57;;
13327;SDS011;6733;51.044;3.746;2022-10-22T16:05:56;7.47;;;2.33;;
13327;SDS011;6733;51.044;3.746;2022-10-22T16:08:23;8.43;;;2.77;;
13327;SDS011;6733;51.044;3.746;2022-10-22T16:10:50;4.53;;;2.43;;
13327;SDS011;6733;51.044;3.746;2022-10-22T16:13:18;11.37;;;2.83;;
13327;SDS011;6733;51.044;3.746;2022-10-22T16:15:46;5.20;;;2.27;;
13327;SDS011;6733;51.044;3.746;2022-10-22T16:18:12;9.13;;;2.93;;
13327;SDS011;6733;51.044;3.746;2022-10-22T16:20:39;7.90;;;3.00;;
13327;SDS011;6733;51.044;3.746;2022-10-22T16:23:05;6.50;;;3.67;;
13327;SDS011;6733;51.044;3.746;2022-10-22T16:25:38;9.07;;;3.40;;
13327;SDS011;6733;51.044;3.746;2022-10-22T16:28:05;6.80;;;3.00;;
13327;SDS011;6733;51.044;3.746;2022-10-22T16:30:33;8.13;;;3.90;;
13327;SDS011;6733;51.044;3.746;2022-10-22T16:33:03;7.23;;;3.87;;
13327;SDS011;6733;51.044;3.746;2022-10-22T16:35:32;7.63;;;3.83;;
13327;SDS011;6733;51.044;3.746;2022-10-22T16:37:58;11.00;;;5.63;;
13327;SDS011;6733;51.044;3.746;2022-10-22T16:40:24;6.33;;;4.07;;
13327;SDS011;6733;51.044;3.746;2022-10-22T16:42:51;11.17;;;3.83;;
13327;SDS011;6733;51.044;3.746;2022-10-22T16:45:18;12.50;;;3.50;;
13327;SDS011;6733;51.044;3.746;2022-10-22T16:47:44;8.07;;;3.20;;
13327;SDS011;6733;51.044;3.746;2022-10-22T16:50:11;8.03;;;3.40;;
13327;SDS011;6733;51.044;3.746;2022-10-22T16:52:37;6.47;;;2.93;;
13327;SDS011;6733;51.044;3.746;2022-10-22T16:55:03;11.77;;;4.17;;
13327;SDS011;6733;51.044;3.746;2022-10-22T16:57:30;11.23;;;3.93;;
13327;SDS011;6733;51.044;3.746;2022-10-22T16:59:58;6.93;;;3.57;;
13327;SDS011;6733;51.044;3.746;2022-10-22T17:02:24;7.33;;;3.10;;
13327;SDS011;6733;51.044;3.746;2022-10-22T17:04:50;7.73;;;3.23;;
13327;SDS011;6733;51.044;3.746;2022-10-22T17:07:16;10.03;;;3.53;;
13327;SDS011;6733;51.044;3.746;2022-10-22T17:09:42;6.40;;;3.50;;
13327;SDS011;6733;51.044;3.746;2022-10-22T17:12:09;11.53;;;3.40;;
13327;SDS011;6733;51.044;3.746;2022-10-22T17:14:35;8.77;;;4.17;;
13327;SDS011;6733;51.044;3.746;2022-10-22T17:17:01;14.63;;;5.90;;
13327;SDS011;6733;51.044;3.746;2022-10-22T17:19:27;7.93;;;4.80;;
13327;SDS011;6733;51.044;3.746;2022-10-22T17:21:53;12.07;;;4.77;;
13327;SDS011;6733;51.044;3.746;2022-10-22T17:24:19;6.80;;;3.60;;
13327;SDS011;6733;51.044;3.746;2022-10-22T17:26:46;10.77;;;4.77;;
13327;SDS011;6733;51.044;3.746;2022-10-22T17:29:12;8.77;;;4.47;;
13327;SDS011;6733;51.044;3.746;2022-10-22T17:31:38;9.23;;;4.77;;
13327;SDS011;6733;51.044;3.746;2022-10-22T17:34:07;15.37;;;7.40;;
13327;SDS011;6733;51.044;3.746;2022-10-22T17:36:35;22.47;;;13.83;;
13327;SDS011;6733;51.044;3.746;2022-10-22T17:39:03;15.93;;;7.50;;
13327;SDS011;6733;51.044;3.746;2022-10-22T17:41:32;11.93;;;6.47;;
13327;SDS011;6733;51.044;3.746;2022-10-22T17:44:04;12.13;;;6.00;;
13327;SDS011;6733;51.044;3.746;2022-10-22T17:46:33;15.77;;;6.70;;
13327;SDS011;6733;51.044;3.746;2022-10-22T17:49:03;16.57;;;7.60;;
13327;SDS011;6733;51.044;3.746;2022-10-22T17:51:32;10.37;;;6.07;;
13327;SDS011;6733;51.044;3.746;2022-10-22T17:53:59;12.67;;;6.17;;
13327;SDS011;6733;51.044;3.746;2022-10-22T17:56:27;13.17;;;6.00;;
13327;SDS011;6733;51.044;3.746;2022-10-22T17:58:57;9.77;;;6.03;;
13327;SDS011;6733;51.044;3.746;2022-10-22T18:01:25;8.83;;;5.57;;
13327;SDS011;6733;51.044;3.746;2022-10-22T18:04:04;12.83;;;5.53;;
13327;SDS011;6733;51.044;3.746;2022-10-22T18:06:33;15.57;;;7.13;;
13327;SDS011;6733;51.044;3.746;2022-10-22T18:09:02;11.77;;;6.30;;
13327;SDS011;6733;51.044;3.746;2022-10-22T18:11:30;13.93;;;6.50;;
13327;SDS011;6733;51.044;3.746;2022-10-22T18:13:57;11.57;;;6.53;;
13327;SDS011;6733;51.044;3.746;2022-10-22T18:16:23;12.40;;;6.73;;
13327;SDS011;6733;51.044;3.746;2022-10-22T18:18:51;12.40;;;6.27;;
13327;SDS011;6733;51.044;3.746;2022-10-22T18:21:19;14.67;;;6.70;;
13327;SDS011;6733;51.044;3.746;2022-10-22T18:23:47;17.00;;;7.20;;
13327;SDS011;6733;51.044;3.746;2022-10-22T18:26:13;23.30;;;18.23;;
13327;SDS011;6733;51.044;3.746;2022-10-22T18:28:41;15.17;;;8.00;;
13327;SDS011;6733;51.044;3.746;2022-10-22T18:31:08;13.90;;;7.47;;
13327;SDS011;6733;51.044;3.746;2022-10-22T18:33:36;11.70;;;6.77;;
13327;SDS011;6733;51.044;3.746;2022-10-22T18:36:04;13.07;;;6.47;;
13327;SDS011;6733;51.044;3.746;2022-10-22T18:38:33;13.20;;;6.70;;
13327;SDS011;6733;51.044;3.746;2022-10-22T18:40:59;17.07;;;7.10;;
13327;SDS011;6733;51.044;3.746;2022-10-22T18:43:26;11.83;;;7.07;;
13327;SDS011;6733;51.044;3.746;2022-10-22T18:45:52;12.27;;;6.03;;
13327;SDS011;6733;51.044;3.746;2022-10-22T18:48:18;11.50;;;7.00;;
13327;SDS011;6733;51.044;3.746;2022-10-22T18:50:56;15.70;;;8.23;;
13327;SDS011;6733;51.044;3.746;2022-10-22T18:53:23;15.70;;;8.57;;
13327;SDS011;6733;51.044;3.746;2022-10-22T18:55:49;13.70;;;8.13;;
13327;SDS011;6733;51.044;3.746;2022-10-22T18:58:16;15.47;;;8.77;;
13327;SDS011;6733;51.044;3.746;2022-10-22T19:00:42;19.63;;;10.23;;
13327;SDS011;6733;51.044;3.746;2022-10-22T19:03:08;21.33;;;13.23;;
13327;SDS011;6733;51.044;3.746;2022-10-22T19:05:43;20.10;;;9.77;;
13327;SDS011;6733;51.044;3.746;2022-10-22T19:08:14;23.93;;;10.20;;
13327;SDS011;6733;51.044;3.746;2022-10-22T19:10:44;18.50;;;9.53;;
13327;SDS011;6733;51.044;3.746;2022-10-22T19:13:11;21.53;;;11.13;;
13327;SDS011;6733;51.044;3.746;2022-10-22T19:15:39;17.07;;;11.57;;
13327;SDS011;6733;51.044;3.746;2022-10-22T19:18:05;24.50;;;11.30;;
13327;SDS011;6733;51.044;3.746;2022-10-22T19:20:32;17.50;;;9.83;;
13327;SDS011;6733;51.044;3.746;2022-10-22T19:22:59;14.40;;;9.57;;
13327;SDS011;6733;51.044;3.746;2022-10-22T19:25:26;16.93;;;9.90;;
13327;SDS011;6733;51.044;3.746;2022-10-22T19:27:52;15.83;;;9.20;;
13327;SDS011;6733;51.044;3.746;2022-10-22T19:30:18;13.60;;;9.63;;
13327;SDS011;6733;51.044;3.746;2022-10-22T19:32:45;22.37;;;12.70;;
13327;SDS011;6733;51.044;3.746;2022-10-22T19:35:13;19.00;;;9.87;;
13327;SDS011;6733;51.044;3.746;2022-10-22T19:37:39;15.00;;;9.37;;
13327;SDS011;6733;51.044;3.746;2022-10-22T19:40:06;19.23;;;9.77;;
13327;SDS011;6733;51.044;3.746;2022-10-22T19:42:36;14.53;;;8.30;;
13327;SDS011;6733;51.044;3.746;2022-10-22T19:45:03;11.97;;;8.70;;
13327;SDS011;6733;51.044;3.746;2022-10-22T19:47:30;14.93;;;9.57;;
13327;SDS011;6733;51.044;3.746;2022-10-22T19:49:56;17.03;;;9.63;;
13327;SDS011;6733;51.044;3.746;2022-10-22T19:52:36;19.00;;;10.13;;
13327;SDS011;6733;51.044;3.746;2022-10-22T19:55:02;13.57;;;9.43;;
13327;SDS011;6733;51.044;3.746;2022-10-22T19:57:28;12.30;;;8.60;;
13327;SDS011;6733;51.044;3.746;2022-10-22T19:59:55;19.93;;;11.00;;
13327;SDS011;6733;51.044;3.746;2022-10-22T20:02:21;17.23;;;10.23;;
13327;SDS011;6733;51.044;3.746;2022-10-22T20:04:47;15.23;;;8.90;;
13327;SDS011;6733;51.044;3.746;2022-10-22T20:07:13;18.13;;;9.23;;
13327;SDS011;6733;51.044;3.746;2022-10-22T20:09:39;14.27;;;8.90;;
13327;SDS011;6733;51.044;3.746;2022-10-22T20:12:06;13.97;;;9.17;;
13327;SDS011;6733;51.044;3.746;2022-10-22T20:14:33;15.47;;;8.90;;
13327;SDS011;6733;51.044;3.746;2022-10-22T20:16:59;17.60;;;9.23;;
13327;SDS011;6733;51.044;3.746;2022-10-22T20:19:25;15.60;;;9.53;;
13327;SDS011;6733;51.044;3.746;2022-10-22T20:21:53;16.73;;;11.30;;
13327;SDS011;6733;51.044;3.746;2022-10-22T20:24:20;16.93;;;8.63;;
13327;SDS011;6733;51.044;3.746;2022-10-22T20:26:46;16.07;;;9.53;;
13327;SDS011;6733;51.044;3.746;2022-10-22T20:29:13;14.30;;;8.83;;
13327;SDS011;6733;51.044;3.746;2022-10-22T20:31:40;23.20;;;12.47;;
13327;SDS011;6733;51.044;3.746;2022-10-22T20:34:07;17.63;;;9.77;;
13327;SDS011;6733;51.044;3.746;2022-10-22T20:36:35;13.97;;;9.00;;